Time;durP1;ratioP1;P1;durP2;ratioP2;P2;SDS_P1;SDS_P2;PMS_P1;PMS_P2;Temp;Humidity;BMP_temperature;BMP_pressure;BME280_temperature;BME280_humidity;BME280_pressure;Samples;Min_cycle;Max_cycle;Signal;HPM_P1;HPM_P2
2023/12/26 00:02:16;;;;;;;;;;;6.60;100.00;;;;;;6267910;22;19919;-72
2023/12/26 00:04:43;;;;;;;;;;;6.60;100.00;;;;;;6267578;22;19923;-72
2023/12/26 00:07:10;;;;;;;;;;;6.70;100.00;;;;;;6268335;22;19981;-72
2023/12/26 00:09:40;;;;;;;;;;;6.70;100.00;;;;;;6241161;22;19921;-73
2023/12/26 00:12:07;;;;;;;;;;;6.80;100.00;;;;;;6267319;22;19919;-72
2023/12/26 00:14:34;;;;;;;;;;;6.80;100.00;;;;;;6268369;22;19923;-72
2023/12/26 00:17:01;;;;;;;;;;;6.90;100.00;;;;;;6266862;22;20318;-72
2023/12/26 00:19:28;;;;;;;;;;;6.90;100.00;;;;;;6267225;22;19992;-72
2023/12/26 00:21:55;;;;;;;;;;;6.90;100.00;;;;;;6267420;22;19919;-72
2023/12/26 00:24:22;;;;;;;;;;;7.00;100.00;;;;;;6267332;22;19953;-72
2023/12/26 00:26:49;;;;;;;;;;;7.00;100.00;;;;;;6239586;22;20628;-72
2023/12/26 00:29:16;;;;;;;;;;;7.00;100.00;;;;;;6267456;22;19985;-72
2023/12/26 00:31:43;;;;;;;;;;;7.10;100.00;;;;;;6267982;22;19919;-73
2023/12/26 00:34:10;;;;;;;;;;;7.10;100.00;;;;;;6267528;22;19992;-72
2023/12/26 00:36:37;;;;;;;;;;;7.10;100.00;;;;;;6265863;22;19957;-72
2023/12/26 00:39:05;;;;;;;;;;;7.10;100.00;;;;;;6267232;22;20297;-72
2023/12/26 00:41:32;;;;;;;;;;;7.10;100.00;;;;;;6267191;22;19962;-73
2023/12/26 00:43:59;;;;;;;;;;;7.20;100.00;;;;;;6266405;22;20017;-73
2023/12/26 00:46:26;;;;;;;;;;;7.20;100.00;;;;;;6266320;22;19926;-73
2023/12/26 00:48:52;;;;;;;;;;;7.20;100.00;;;;;;6267530;22;19984;-72
2023/12/26 00:51:19;;;;;;;;;;;7.20;100.00;;;;;;6266391;22;19919;-73
2023/12/26 00:53:46;;;;;;;;;;;7.20;100.00;;;;;;6266349;22;19958;-72
2023/12/26 00:56:13;;;;;;;;;;;7.30;100.00;;;;;;6266256;22;19950;-73
2023/12/26 00:58:40;;;;;;;;;;;7.30;100.00;;;;;;6239142;22;19919;-72
2023/12/26 01:01:07;;;;;;;;;;;7.30;100.00;;;;;;6266656;22;19919;-73
2023/12/26 01:03:34;;;;;;;;;;;7.40;100.00;;;;;;6266967;22;19926;-72
2023/12/26 01:06:01;;;;;;;;;;;7.40;100.00;;;;;;6239251;22;19926;-72
2023/12/26 01:08:28;;;;;;;;;;;7.40;100.00;;;;;;6266713;22;19923;-72
2023/12/26 01:10:55;;;;;;;;;;;7.40;100.00;;;;;;6267008;22;19919;-72
2023/12/26 01:13:22;;;;;;;;;;;7.40;100.00;;;;;;6239764;22;20508;-73
2023/12/26 01:15:48;;;;;;;;;;;7.50;100.00;;;;;;6266189;22;20657;-72
2023/12/26 01:18:16;;;;;;;;;;;7.50;100.00;;;;;;6266988;22;19919;-72
2023/12/26 01:20:43;;;;;;;;;;;7.50;100.00;;;;;;6267260;22;19962;-73
2023/12/26 01:23:10;;;;;;;;;;;7.50;100.00;;;;;;6266131;22;19919;-72
2023/12/26 01:25:36;;;;;;;;;;;7.50;100.00;;;;;;6239665;22;19984;-72
2023/12/26 01:28:03;;;;;;;;;;;7.50;100.00;;;;;;6266847;22;19987;-72
2023/12/26 01:30:30;;;;;;;;;;;7.50;100.00;;;;;;6266141;22;19927;-73
2023/12/26 01:32:57;;;;;;;;;;;7.50;100.00;;;;;;6240015;22;20307;-73
2023/12/26 01:35:25;;;;;;;;;;;7.50;100.00;;;;;;6239857;22;19923;-73
2023/12/26 01:37:53;;;;;;;;;;;7.50;100.00;;;;;;6266681;22;19976;-73
2023/12/26 01:40:20;;;;;;;;;;;7.50;100.00;;;;;;6266204;22;20326;-73
2023/12/26 01:42:47;;;;;;;;;;;7.50;100.00;;;;;;6266216;22;19922;-73
2023/12/26 01:45:14;;;;;;;;;;;7.50;100.00;;;;;;6238412;22;19973;-73
2023/12/26 01:47:47;;;;;;;;;;;7.50;100.00;;;;;;6264917;22;19919;-73
2023/12/26 01:50:14;;;;;;;;;;;7.50;100.00;;;;;;6237926;22;19950;-73
2023/12/26 01:52:42;;;;;;;;;;;7.50;100.00;;;;;;6266641;22;19919;-72
2023/12/26 01:55:09;;;;;;;;;;;7.50;100.00;;;;;;6266204;22;19919;-67
2023/12/26 01:57:39;;;;;;;;;;;7.50;100.00;;;;;;6265371;22;19915;-67
2023/12/26 02:00:06;;;;;;;;;;;7.50;100.00;;;;;;6268442;22;19918;-72
2023/12/26 02:02:33;;;;;;;;;;;7.50;100.00;;;;;;6265512;22;19919;-73
2023/12/26 02:05:01;;;;;;;;;;;7.60;100.00;;;;;;6265065;22;19919;-73
2023/12/26 02:07:28;;;;;;;;;;;7.50;100.00;;;;;;6237688;22;19926;-73
2023/12/26 02:09:55;;;;;;;;;;;7.60;100.00;;;;;;6265927;22;19923;-73
2023/12/26 02:12:22;;;;;;;;;;;7.60;100.00;;;;;;6264424;22;19930;-73
2023/12/26 02:14:49;;;;;;;;;;;7.60;100.00;;;;;;6265979;22;19919;-73
2023/12/26 02:17:21;;;;;;;;;;;7.60;100.00;;;;;;6266715;22;19915;-73
2023/12/26 02:19:48;;;;;;;;;;;7.60;100.00;;;;;;6266582;22;19923;-73
2023/12/26 02:22:15;;;;;;;;;;;7.60;100.00;;;;;;6266254;22;19919;-73
2023/12/26 02:24:42;;;;;;;;;;;7.60;100.00;;;;;;6238095;22;20483;-72
2023/12/26 02:27:20;;;;;;;;;;;7.60;100.00;;;;;;6265697;22;19925;-73
2023/12/26 02:29:48;;;;;;;;;;;7.60;100.00;;;;;;6266536;22;19915;-73
2023/12/26 02:32:19;;;;;;;;;;;7.60;100.00;;;;;;6266061;22;19923;-73
2023/12/26 02:34:50;;;;;;;;;;;7.60;100.00;;;;;;6266480;22;20001;-72
2023/12/26 02:37:17;;;;;;;;;;;7.70;100.00;;;;;;6239452;22;19969;-72
2023/12/26 02:39:45;;;;;;;;;;;7.70;100.00;;;;;;6267233;22;20018;-73
2023/12/26 02:42:12;;;;;;;;;;;7.60;100.00;;;;;;6265736;22;19916;-72
2023/12/26 02:44:38;;;;;;;;;;;7.60;100.00;;;;;;6265752;22;19915;-72
2023/12/26 02:47:05;;;;;;;;;;;7.60;100.00;;;;;;6266441;22;20582;-73
2023/12/26 02:49:32;;;;;;;;;;;7.60;100.00;;;;;;6240083;22;19965;-72
2023/12/26 02:51:59;;;;;;;;;;;7.60;100.00;;;;;;6266792;22;19926;-72
2023/12/26 02:54:26;;;;;;;;;;;7.60;100.00;;;;;;6266598;22;19938;-72
2023/12/26 02:56:52;;;;;;;;;;;7.60;100.00;;;;;;6240181;22;19953;-66
2023/12/26 02:59:19;;;;;;;;;;;7.60;100.00;;;;;;6238420;22;20556;-66
2023/12/26 03:01:46;;;;;;;;;;;7.70;100.00;;;;;;6265034;22;19980;-66
2023/12/26 03:04:13;;;;;;;;;;;7.70;100.00;;;;;;6239314;22;20454;-66
2023/12/26 03:06:40;;;;;;;;;;;7.70;100.00;;;;;;6265289;22;19923;-66
2023/12/26 03:09:07;;;;;;;;;;;7.70;100.00;;;;;;6265652;22;19925;-66
2023/12/26 03:11:34;;;;;;;;;;;7.70;100.00;;;;;;6266005;22;19998;-66
2023/12/26 03:14:01;;;;;;;;;;;7.70;100.00;;;;;;6237733;22;19919;-66
2023/12/26 03:16:28;;;;;;;;;;;7.70;100.00;;;;;;6264249;22;19919;-66
2023/12/26 03:18:55;;;;;;;;;;;7.70;100.00;;;;;;6265020;22;19919;-66
2023/12/26 03:21:22;;;;;;;;;;;7.70;100.00;;;;;;6265697;22;19915;-66
2023/12/26 03:23:49;;;;;;;;;;;7.70;100.00;;;;;;6265473;22;20501;-66
2023/12/26 03:26:16;;;;;;;;;;;7.70;100.00;;;;;;6266269;22;20227;-72
2023/12/26 03:28:43;;;;;;;;;;;7.70;100.00;;;;;;6266098;22;19926;-72
2023/12/26 03:31:10;;;;;;;;;;;7.70;100.00;;;;;;6266118;22;19926;-71
2023/12/26 03:33:39;;;;;;;;;;;7.70;100.00;;;;;;6264696;22;20001;-71
2023/12/26 03:36:08;;;;;;;;;;;7.70;100.00;;;;;;6264472;22;19957;-71
2023/12/26 03:38:38;;;;;;;;;;;7.70;100.00;;;;;;6264172;22;19958;-72
2023/12/26 03:41:05;;;;;;;;;;;7.70;100.00;;;;;;6262910;22;20623;-72
2023/12/26 03:43:31;;;;;;;;;;;7.70;100.00;;;;;;6265058;22;19927;-72
2023/12/26 03:45:58;;;;;;;;;;;7.70;100.00;;;;;;6264624;22;19923;-72
2023/12/26 03:48:25;;;;;;;;;;;7.60;100.00;;;;;;6266553;22;19942;-72
2023/12/26 03:50:52;;;;;;;;;;;7.60;100.00;;;;;;6265839;22;19925;-72
2023/12/26 03:53:19;;;;;;;;;;;7.70;100.00;;;;;;6266825;22;20409;-71
2023/12/26 03:55:46;;;;;;;;;;;7.60;100.00;;;;;;6266571;22;19919;-72
2023/12/26 03:58:13;;;;;;;;;;;7.60;100.00;;;;;;6267409;22;19919;-67
2023/12/26 04:00:40;;;;;;;;;;;7.60;100.00;;;;;;6267222;22;20328;-67
2023/12/26 04:03:07;;;;;;;;;;;7.60;100.00;;;;;;6266708;22;19926;-67
2023/12/26 04:05:34;;;;;;;;;;;7.60;100.00;;;;;;6266797;22;19926;-67
2023/12/26 04:08:03;;;;;;;;;;;7.60;100.00;;;;;;6267676;22;19922;-66
2023/12/26 04:10:30;;;;;;;;;;;7.60;100.00;;;;;;6266930;22;19998;-67
2023/12/26 04:12:57;;;;;;;;;;;7.60;100.00;;;;;;6239567;22;19926;-67
2023/12/26 04:15:24;;;;;;;;;;;7.60;100.00;;;;;;6268101;22;19988;-72
2023/12/26 04:17:51;;;;;;;;;;;7.60;100.00;;;;;;6267398;22;19922;-72
2023/12/26 04:20:18;;;;;;;;;;;7.60;100.00;;;;;;6266911;22;19923;-72
2023/12/26 04:22:45;;;;;;;;;;;7.60;100.00;;;;;;6266891;22;19945;-72
2023/12/26 04:25:12;;;;;;;;;;;7.60;100.00;;;;;;6267050;22;19923;-72
2023/12/26 04:27:38;;;;;;;;;;;7.60;100.00;;;;;;6267480;22;19988;-66
2023/12/26 04:30:06;;;;;;;;;;;7.70;100.00;;;;;;6266885;22;19977;-67
2023/12/26 04:32:33;;;;;;;;;;;7.60;100.00;;;;;;6266629;22;20546;-67
2023/12/26 04:34:59;;;;;;;;;;;7.60;100.00;;;;;;6266271;22;19923;-66
2023/12/26 04:37:26;;;;;;;;;;;7.70;100.00;;;;;;6266036;22;20339;-66
2023/12/26 04:39:53;;;;;;;;;;;7.70;100.00;;;;;;6266625;22;19925;-66
2023/12/26 04:42:20;;;;;;;;;;;7.70;100.00;;;;;;6266736;22;19919;-67
2023/12/26 04:44:47;;;;;;;;;;;7.70;100.00;;;;;;6266378;22;19938;-66
2023/12/26 04:47:13;;;;;;;;;;;7.70;100.00;;;;;;6239204;22;19919;-66
2023/12/26 04:49:40;;;;;;;;;;;7.80;100.00;;;;;;6266442;22;19926;-66
2023/12/26 04:52:07;;;;;;;;;;;7.80;100.00;;;;;;6265829;22;19988;-67
2023/12/26 04:54:34;;;;;;;;;;;7.80;100.00;;;;;;6239225;22;19919;-66
2023/12/26 04:57:01;;;;;;;;;;;7.90;100.00;;;;;;6266550;22;20435;-66
2023/12/26 04:59:36;;;;;;;;;;;7.90;100.00;;;;;;6239270;22;20002;-67
2023/12/26 05:02:03;;;;;;;;;;;7.90;100.00;;;;;;6266080;22;19919;-66
2023/12/26 05:04:30;;;;;;;;;;;7.90;100.00;;;;;;6239693;22;19949;-67
2023/12/26 05:06:57;;;;;;;;;;;7.90;100.00;;;;;;6266205;22;19919;-67
2023/12/26 05:09:24;;;;;;;;;;;8.00;100.00;;;;;;6265877;22;20456;-66
2023/12/26 05:11:51;;;;;;;;;;;8.00;100.00;;;;;;6266953;22;19941;-67
2023/12/26 05:14:18;;;;;;;;;;;8.00;100.00;;;;;;6266840;22;19926;-67
2023/12/26 05:16:48;;;;;;;;;;;8.00;100.00;;;;;;6238918;22;19919;-67
2023/12/26 05:19:15;;;;;;;;;;;8.00;100.00;;;;;;6266345;22;19919;-67
2023/12/26 05:21:42;;;;;;;;;;;8.00;100.00;;;;;;6266245;22;19954;-67
2023/12/26 05:24:09;;;;;;;;;;;8.10;100.00;;;;;;6265077;22;19922;-66
2023/12/26 05:26:40;;;;;;;;;;;8.10;100.00;;;;;;6264636;22;19945;-67
2023/12/26 05:29:07;;;;;;;;;;;8.00;100.00;;;;;;6265576;22;19925;-66
2023/12/26 05:31:34;;;;;;;;;;;8.00;100.00;;;;;;6265070;22;19927;-66
2023/12/26 05:34:02;;;;;;;;;;;8.00;100.00;;;;;;6264233;22;19942;-66
2023/12/26 05:36:29;;;;;;;;;;;8.00;100.00;;;;;;6264921;22;19993;-66
2023/12/26 05:38:57;;;;;;;;;;;7.90;100.00;;;;;;6238037;22;19950;-66
2023/12/26 05:41:25;;;;;;;;;;;7.90;100.00;;;;;;6265005;22;19923;-66
2023/12/26 05:43:51;;;;;;;;;;;7.90;100.00;;;;;;6290831;22;19915;-66
2023/12/26 05:46:20;;;;;;;;;;;7.80;100.00;;;;;;6265647;22;19994;-66
2023/12/26 05:48:47;;;;;;;;;;;7.80;100.00;;;;;;6237200;22;19923;-66
2023/12/26 05:51:14;;;;;;;;;;;7.80;100.00;;;;;;6264726;22;20309;-66
2023/12/26 05:53:41;;;;;;;;;;;7.70;100.00;;;;;;6237406;22;19919;-66
2023/12/26 05:56:08;;;;;;;;;;;7.70;100.00;;;;;;6264359;22;20335;-66
2023/12/26 05:58:35;;;;;;;;;;;7.70;100.00;;;;;;6238296;22;19919;-66
2023/12/26 06:01:01;;;;;;;;;;;7.70;100.00;;;;;;6237244;22;19919;-66
2023/12/26 06:03:28;;;;;;;;;;;7.70;100.00;;;;;;6265393;22;19926;-66
2023/12/26 06:05:55;;;;;;;;;;;7.70;100.00;;;;;;6263992;22;19919;-66
2023/12/26 06:08:23;;;;;;;;;;;7.70;100.00;;;;;;6265883;22;19918;-66
2023/12/26 06:10:49;;;;;;;;;;;7.70;100.00;;;;;;6238385;22;19919;-66
2023/12/26 06:13:16;;;;;;;;;;;7.70;100.00;;;;;;6239101;22;20524;-66
2023/12/26 06:15:43;;;;;;;;;;;7.70;100.00;;;;;;6238846;22;19915;-66
2023/12/26 06:18:10;;;;;;;;;;;7.60;100.00;;;;;;6253952;22;19919;-66
2023/12/26 06:20:37;;;;;;;;;;;7.60;100.00;;;;;;6295944;22;20393;-66
2023/12/26 06:23:04;;;;;;;;;;;7.50;100.00;;;;;;6296989;22;20385;-66
2023/12/26 06:25:31;;;;;;;;;;;7.50;100.00;;;;;;6297234;22;20717;-66
2023/12/26 06:27:58;;;;;;;;;;;7.50;100.00;;;;;;6296021;22;20328;-66
2023/12/26 06:30:24;;;;;;;;;;;7.50;100.00;;;;;;6295468;22;19919;-66
2023/12/26 06:32:51;;;;;;;;;;;7.40;100.00;;;;;;6296956;22;19919;-67
2023/12/26 06:35:18;;;;;;;;;;;7.30;100.00;;;;;;6268888;22;19919;-67
2023/12/26 06:37:45;;;;;;;;;;;7.30;100.00;;;;;;6269279;22;19954;-66
2023/12/26 06:40:12;;;;;;;;;;;7.20;100.00;;;;;;6296678;22;19922;-66
2023/12/26 06:42:39;;;;;;;;;;;7.10;100.00;;;;;;6296504;22;19943;-66
2023/12/26 06:45:06;;;;;;;;;;;7.10;100.00;;;;;;6269228;22;19920;-66
2023/12/26 06:47:33;;;;;;;;;;;7.10;100.00;;;;;;6296162;22;19958;-66
2023/12/26 06:49:59;;;;;;;;;;;7.20;100.00;;;;;;6269322;22;20384;-67
2023/12/26 06:52:26;;;;;;;;;;;7.10;100.00;;;;;;6296483;22;19921;-67
2023/12/26 06:54:53;;;;;;;;;;;7.10;100.00;;;;;;6296673;22;19987;-67
2023/12/26 06:57:20;;;;;;;;;;;7.00;100.00;;;;;;6295687;22;20525;-67
2023/12/26 06:59:48;;;;;;;;;;;7.00;100.00;;;;;;6295838;22;19930;-67
2023/12/26 07:02:15;;;;;;;;;;;7.10;100.00;;;;;;6268841;22;19919;-67
2023/12/26 07:04:42;;;;;;;;;;;7.00;100.00;;;;;;6296519;22;19927;-67
2023/12/26 07:07:09;;;;;;;;;;;7.10;100.00;;;;;;6296015;22;19926;-67
2023/12/26 07:09:37;;;;;;;;;;;7.10;100.00;;;;;;6295885;22;19922;-67
2023/12/26 07:12:04;;;;;;;;;;;7.10;100.00;;;;;;6295823;22;20396;-67
2023/12/26 07:14:31;;;;;;;;;;;7.00;100.00;;;;;;6296690;22;19915;-66
2023/12/26 07:16:58;;;;;;;;;;;7.00;100.00;;;;;;6294821;22;19927;-67
2023/12/26 07:19:24;;;;;;;;;;;6.90;100.00;;;;;;6237448;22;19922;-66
2023/12/26 07:21:52;;;;;;;;;;;7.00;100.00;;;;;;6267087;22;20009;-67
2023/12/26 07:24:20;;;;;;;;;;;6.90;100.00;;;;;;6266462;22;20026;-67
2023/12/26 07:26:47;;;;;;;;;;;6.90;100.00;;;;;;6267729;22;20618;-67
2023/12/26 07:29:14;;;;;;;;;;;6.90;100.00;;;;;;6240309;22;19988;-67
2023/12/26 07:31:41;;;;;;;;;;;6.80;100.00;;;;;;6265917;22;19973;-67
2023/12/26 07:34:09;;;;;;;;;;;6.70;100.00;;;;;;6265095;22;20010;-67
2023/12/26 07:36:36;;;;;;;;;;;6.70;100.00;;;;;;6266563;22;19926;-67
2023/12/26 07:39:03;;;;;;;;;;;6.70;100.00;;;;;;6266125;22;19992;-67
2023/12/26 07:41:29;;;;;;;;;;;6.70;100.00;;;;;;6267273;22;20525;-67
2023/12/26 07:43:56;;;;;;;;;;;6.80;100.00;;;;;;6267453;22;19945;-67
2023/12/26 07:46:24;;;;;;;;;;;6.80;100.00;;;;;;6266375;22;19945;-67
2023/12/26 07:48:51;;;;;;;;;;;6.80;100.00;;;;;;6266880;22;19995;-67
2023/12/26 07:51:18;;;;;;;;;;;6.90;100.00;;;;;;6267436;22;19923;-67
2023/12/26 07:53:46;;;;;;;;;;;6.80;100.00;;;;;;6267275;22;20026;-67
2023/12/26 07:56:12;;;;;;;;;;;6.80;100.00;;;;;;6239555;22;19925;-67
2023/12/26 07:58:39;;;;;;;;;;;6.90;100.00;;;;;;6266939;22;19919;-67
2023/12/26 08:01:06;;;;;;;;;;;7.00;100.00;;;;;;6267601;22;19965;-67
2023/12/26 08:03:33;;;;;;;;;;;7.00;100.00;;;;;;6265850;22;19941;-67
2023/12/26 08:06:00;;;;;;;;;;;7.10;100.00;;;;;;6266659;22;19992;-67
2023/12/26 08:08:27;;;;;;;;;;;7.10;100.00;;;;;;6266537;22;19947;-66
2023/12/26 08:10:54;;;;;;;;;;;7.10;100.00;;;;;;6266709;22;19919;-67
2023/12/26 08:13:21;;;;;;;;;;;7.10;100.00;;;;;;6266381;22;19954;-67
2023/12/26 08:15:48;;;;;;;;;;;7.10;100.00;;;;;;6239780;22;19923;-67
2023/12/26 08:18:15;;;;;;;;;;;7.20;100.00;;;;;;6266401;22;19922;-67
2023/12/26 08:20:42;;;;;;;;;;;7.20;100.00;;;;;;6266290;22;19915;-67
2023/12/26 08:23:08;;;;;;;;;;;7.40;100.00;;;;;;6238689;22;19929;-67
2023/12/26 08:25:37;;;;;;;;;;;7.30;100.00;;;;;;6239314;22;19919;-67
2023/12/26 08:28:04;;;;;;;;;;;7.40;100.00;;;;;;6266260;22;20016;-67
2023/12/26 08:30:31;;;;;;;;;;;7.30;100.00;;;;;;6266528;22;19915;-67
2023/12/26 08:33:04;;;;;;;;;;;7.30;100.00;;;;;;6242167;22;19919;-67
2023/12/26 08:35:31;;;;;;;;;;;7.30;100.00;;;;;;6266118;22;19942;-67
2023/12/26 08:37:58;;;;;;;;;;;7.40;100.00;;;;;;6266880;22;19923;-67
2023/12/26 08:40:25;;;;;;;;;;;7.40;100.00;;;;;;6266648;22;19926;-67
2023/12/26 08:42:52;;;;;;;;;;;7.40;100.00;;;;;;6266485;22;19926;-67
2023/12/26 08:45:19;;;;;;;;;;;7.40;100.00;;;;;;6265564;22;19926;-66
2023/12/26 08:47:46;;;;;;;;;;;7.40;100.00;;;;;;6266521;22;20579;-67
2023/12/26 08:50:13;;;;;;;;;;;7.50;100.00;;;;;;6264936;22;20231;-66
2023/12/26 08:52:40;;;;;;;;;;;7.50;100.00;;;;;;6264442;22;19973;-67
2023/12/26 08:55:06;;;;;;;;;;;7.50;100.00;;;;;;6265838;22;19915;-67
2023/12/26 08:57:33;;;;;;;;;;;7.60;100.00;;;;;;6266941;22;20283;-67
2023/12/26 09:00:00;;;;;;;;;;;7.60;100.00;;;;;;6239205;22;20032;-67
2023/12/26 09:02:28;;;;;;;;;;;7.70;100.00;;;;;;6266062;22;20271;-66
2023/12/26 09:04:54;;;;;;;;;;;7.70;100.00;;;;;;6239285;22;19946;-68
2023/12/26 09:07:21;;;;;;;;;;;7.70;100.00;;;;;;6266344;22;19926;-67
2023/12/26 09:09:48;;;;;;;;;;;7.70;100.00;;;;;;6238155;22;19922;-68
2023/12/26 09:12:15;;;;;;;;;;;7.70;100.00;;;;;;6265556;22;19918;-67
2023/12/26 09:14:42;;;;;;;;;;;7.70;100.00;;;;;;6238321;22;20244;-65
2023/12/26 09:17:09;;;;;;;;;;;7.70;100.00;;;;;;6264437;22;19930;-67
2023/12/26 09:19:35;;;;;;;;;;;7.70;100.00;;;;;;6265324;22;19923;-66
2023/12/26 09:22:02;;;;;;;;;;;7.70;100.00;;;;;;6265996;22;19915;-65
2023/12/26 09:24:29;;;;;;;;;;;7.70;100.00;;;;;;6265777;22;19938;-65
2023/12/26 09:26:56;;;;;;;;;;;7.80;100.00;;;;;;6265785;22;19946;-65
2023/12/26 09:29:23;;;;;;;;;;;7.80;100.00;;;;;;6240025;22;19919;-66
2023/12/26 09:31:49;;;;;;;;;;;7.80;100.00;;;;;;6238709;22;19927;-65
2023/12/26 09:34:16;;;;;;;;;;;7.90;100.00;;;;;;6238078;22;19919;-66
2023/12/26 09:36:43;;;;;;;;;;;7.90;100.00;;;;;;6264679;22;19964;-67
2023/12/26 09:39:10;;;;;;;;;;;7.90;100.00;;;;;;6265282;22;19958;-68
2023/12/26 09:41:37;;;;;;;;;;;7.80;100.00;;;;;;6237955;22;20015;-65
2023/12/26 09:44:04;;;;;;;;;;;7.80;100.00;;;;;;6264715;22;19915;-66
2023/12/26 09:46:31;;;;;;;;;;;7.90;100.00;;;;;;6235703;22;20295;-65
2023/12/26 09:48:58;;;;;;;;;;;7.90;100.00;;;;;;6263117;22;19919;-65
2023/12/26 09:51:43;;;;;;;;;;;7.90;100.00;;;;;;6239365;22;19919;-65
2023/12/26 09:54:10;;;;;;;;;;;7.90;100.00;;;;;;6238257;22;19923;-67
2023/12/26 09:56:40;;;;;;;;;;;7.90;100.00;;;;;;6264964;22;20041;-67
2023/12/26 09:59:07;;;;;;;;;;;7.90;100.00;;;;;;6265979;22;19921;-66
2023/12/26 10:01:34;;;;;;;;;;;7.90;100.00;;;;;;6239043;22;19919;-66
2023/12/26 10:04:05;;;;;;;;;;;7.80;100.00;;;;;;6264089;22;20429;-66
2023/12/26 10:06:33;;;;;;;;;;;7.80;100.00;;;;;;6265392;22;19919;-66
2023/12/26 10:09:00;;;;;;;;;;;7.80;100.00;;;;;;6266122;22;19923;-66
2023/12/26 10:11:28;;;;;;;;;;;7.80;100.00;;;;;;6237974;22;19919;-66
2023/12/26 10:13:55;;;;;;;;;;;7.70;100.00;;;;;;6237370;22;19938;-67
2023/12/26 10:16:22;;;;;;;;;;;7.70;100.00;;;;;;6264934;22;19926;-67
2023/12/26 10:18:52;;;;;;;;;;;7.60;100.00;;;;;;6260762;22;19981;-66
2023/12/26 10:21:19;;;;;;;;;;;7.50;100.00;;;;;;6233938;22;19925;-67
2023/12/26 10:23:46;;;;;;;;;;;7.50;100.00;;;;;;6261848;22;19923;-66
2023/12/26 10:26:13;;;;;;;;;;;7.50;100.00;;;;;;6235076;22;19926;-67
2023/12/26 10:28:41;;;;;;;;;;;7.40;100.00;;;;;;6261881;22;20328;-66
2023/12/26 10:31:15;;;;;;;;;;;7.40;100.00;;;;;;6235363;22;20538;-66
2023/12/26 10:33:42;;;;;;;;;;;7.30;100.00;;;;;;6262523;22;19922;-67
2023/12/26 10:36:12;;;;;;;;;;;7.30;100.00;;;;;;6234580;22;20004;-67
2023/12/26 10:38:40;;;;;;;;;;;7.30;100.00;;;;;;6234686;22;19929;-67
2023/12/26 10:41:10;;;;;;;;;;;7.20;100.00;;;;;;6232543;22;19919;-67
2023/12/26 10:43:40;;;;;;;;;;;7.20;100.00;;;;;;6261339;22;19919;-67
2023/12/26 10:46:07;;;;;;;;;;;7.20;100.00;;;;;;6260449;22;19993;-67
2023/12/26 10:48:34;;;;;;;;;;;7.20;100.00;;;;;;6259987;22;20435;-67
2023/12/26 10:51:01;;;;;;;;;;;7.20;100.00;;;;;;6257856;22;19919;-66
2023/12/26 10:53:49;;;;;;;;;;;7.30;100.00;;;;;;6232751;22;19942;-66
2023/12/26 10:56:16;;;;;;;;;;;7.30;100.00;;;;;;6261490;22;20302;-67
2023/12/26 10:58:43;;;;;;;;;;;7.30;100.00;;;;;;6210544;22;19919;-67
2023/12/26 11:01:10;;;;;;;;;;;7.30;100.00;;;;;;6261912;22;20471;-69
2023/12/26 13:52:56;;;;;;;;;;;6.60;100.00;;;;;;6265590;22;20268;-66
2023/12/26 13:55:24;;;;;;;;;;;6.60;100.00;;;;;;6258411;22;20517;-67
2023/12/26 13:57:51;;;;;;;;;;;6.50;100.00;;;;;;6258375;22;19930;-66
2023/12/26 14:00:17;;;;;;;;;;;6.50;100.00;;;;;;6257573;22;19928;-72
2023/12/26 14:02:44;;;;;;;;;;;6.50;100.00;;;;;;6261327;22;19930;-73
2023/12/26 14:05:11;;;;;;;;;;;6.40;100.00;;;;;;6234971;22;19998;-73
2023/12/26 14:07:38;;;;;;;;;;;6.40;100.00;;;;;;6262374;22;20409;-73
2023/12/26 14:10:05;;;;;;;;;;;6.40;100.00;;;;;;6263549;22;19919;-74
2023/12/26 14:12:32;;;;;;;;;;;6.40;100.00;;;;;;6266661;22;19938;-74
2023/12/26 14:14:58;;;;;;;;;;;6.40;100.00;;;;;;6239942;22;20327;-74
2023/12/26 14:17:25;;;;;;;;;;;6.40;100.00;;;;;;6244891;22;20350;-74
2023/12/26 14:19:52;;;;;;;;;;;6.30;100.00;;;;;;6297094;22;19925;-72
2023/12/26 14:22:19;;;;;;;;;;;6.30;100.00;;;;;;6295208;22;19953;-74
2023/12/26 14:24:46;;;;;;;;;;;6.30;100.00;;;;;;6295802;22;19915;-71
2023/12/26 14:27:12;;;;;;;;;;;6.20;100.00;;;;;;6292688;22;20504;-72
2023/12/26 14:29:39;;;;;;;;;;;6.30;100.00;;;;;;6265582;22;19919;-73
2023/12/26 14:32:06;;;;;;;;;;;6.20;100.00;;;;;;6293437;22;19992;-72
2023/12/26 14:34:33;;;;;;;;;;;6.20;100.00;;;;;;6266206;22;19919;-73
2023/12/26 14:37:00;;;;;;;;;;;6.20;100.00;;;;;;6292626;22;20263;-74
2023/12/26 14:39:26;;;;;;;;;;;6.20;100.00;;;;;;6265881;22;19919;-72
2023/12/26 14:41:53;;;;;;;;;;;6.20;100.00;;;;;;6292563;22;19918;-72
2023/12/26 14:44:20;;;;;;;;;;;6.20;100.00;;;;;;6290560;22;19974;-72
2023/12/26 14:46:47;;;;;;;;;;;6.20;100.00;;;;;;6290986;22;19981;-72
2023/12/26 14:49:13;;;;;;;;;;;6.10;100.00;;;;;;6293699;22;19918;-78
2023/12/26 14:51:40;;;;;;;;;;;6.10;100.00;;;;;;6290556;22;20350;-72
2023/12/26 14:54:07;;;;;;;;;;;6.10;100.00;;;;;;6292239;22;19918;-72
2023/12/26 14:56:34;;;;;;;;;;;6.00;100.00;;;;;;6292927;22;19918;-73
2023/12/26 14:59:03;;;;;;;;;;;6.00;100.00;;;;;;6292810;22;20664;-73
2023/12/26 15:01:29;;;;;;;;;;;5.90;100.00;;;;;;6293906;22;20232;-72
2023/12/26 15:03:57;;;;;;;;;;;5.90;100.00;;;;;;6266246;22;19976;-73
2023/12/26 15:06:24;;;;;;;;;;;5.80;100.00;;;;;;6316675;22;19994;-72
2023/12/26 15:08:51;;;;;;;;;;;5.80;100.00;;;;;;6293034;22;19972;-73
2023/12/26 15:11:18;;;;;;;;;;;5.80;100.00;;;;;;6293549;22;19918;-72
2023/12/26 15:13:45;;;;;;;;;;;5.80;100.00;;;;;;6293610;22;19977;-73
2023/12/26 15:16:26;;;;;;;;;;;5.70;100.00;;;;;;6292992;22;20473;-73
2023/12/26 15:18:54;;;;;;;;;;;5.70;100.00;;;;;;6266407;22;19918;-73
2023/12/26 15:21:22;;;;;;;;;;;5.70;100.00;;;;;;6293240;22;20367;-73
2023/12/26 15:23:50;;;;;;;;;;;5.60;100.00;;;;;;6291882;22;19919;-73
2023/12/26 15:26:17;;;;;;;;;;;5.40;100.00;;;;;;6292927;22;20549;-73
2023/12/26 15:28:44;;;;;;;;;;;5.30;100.00;;;;;;6293426;22;19919;-73
2023/12/26 15:31:13;;;;;;;;;;;5.20;100.00;;;;;;6292157;22;20315;-73
2023/12/26 15:33:42;;;;;;;;;;;5.10;100.00;;;;;;6265203;22;20016;-74
2023/12/26 15:36:19;;;;;;;;;;;5.00;100.00;;;;;;6291645;22;19923;-73
2023/12/26 15:38:46;;;;;;;;;;;5.00;100.00;;;;;;6292497;22;20437;-74
2023/12/26 15:41:13;;;;;;;;;;;4.90;100.00;;;;;;6292438;22;19923;-74
2023/12/26 15:43:39;;;;;;;;;;;4.80;100.00;;;;;;6294835;22;19965;-73
2023/12/26 15:46:20;;;;;;;;;;;4.80;100.00;;;;;;6293843;22;20302;-73
2023/12/26 15:48:47;;;;;;;;;;;4.80;100.00;;;;;;6267255;22;19995;-66
2023/12/26 15:51:18;;;;;;;;;;;4.80;100.00;;;;;;6295014;22;19925;-67
2023/12/26 15:53:46;;;;;;;;;;;4.80;100.00;;;;;;6267938;22;19997;-67
2023/12/26 15:56:14;;;;;;;;;;;4.80;100.00;;;;;;6264357;22;19919;-67
2023/12/26 15:58:41;;;;;;;;;;;4.80;100.00;;;;;;6294709;22;19919;-66
2023/12/26 16:01:08;;;;;;;;;;;4.80;100.00;;;;;;6294604;22;19918;-67
2023/12/26 16:03:35;;;;;;;;;;;4.80;100.00;;;;;;6266682;22;19942;-66
2023/12/26 16:06:02;;;;;;;;;;;4.80;100.00;;;;;;6293638;22;19972;-67
2023/12/26 16:08:29;;;;;;;;;;;4.80;100.00;;;;;;6294779;22;19925;-67
2023/12/26 16:10:57;;;;;;;;;;;4.80;100.00;;;;;;6293475;22;20021;-68
2023/12/26 16:13:24;;;;;;;;;;;4.70;100.00;;;;;;6293350;22;19950;-67
2023/12/26 16:15:51;;;;;;;;;;;4.70;100.00;;;;;;6265379;22;19919;-68
2023/12/26 16:18:18;;;;;;;;;;;4.70;100.00;;;;;;6264063;22;20338;-67
2023/12/26 16:20:45;;;;;;;;;;;4.70;100.00;;;;;;6292281;22;19926;-67
2023/12/26 16:23:12;;;;;;;;;;;4.70;100.00;;;;;;6290357;22;19919;-67
2023/12/26 16:25:44;;;;;;;;;;;4.70;100.00;;;;;;6291246;22;20201;-66
2023/12/26 16:28:12;;;;;;;;;;;4.70;100.00;;;;;;6264094;22;19919;-75
2023/12/26 16:30:39;;;;;;;;;;;4.70;100.00;;;;;;6291599;22;19922;-75
2023/12/26 16:33:06;;;;;;;;;;;4.70;100.00;;;;;;6264246;22;19918;-74
2023/12/26 16:35:36;;;;;;;;;;;4.70;100.00;;;;;;6289907;22;19922;-75
2023/12/26 16:38:04;;;;;;;;;;;4.70;100.00;;;;;;6290879;22;19926;-74
2023/12/26 16:40:34;;;;;;;;;;;4.70;100.00;;;;;;6292025;22;19926;-75
2023/12/26 16:43:04;;;;;;;;;;;4.80;100.00;;;;;;6291312;22;19922;-75
2023/12/26 16:45:35;;;;;;;;;;;4.80;100.00;;;;;;6292323;22;19942;-74
2023/12/26 16:48:07;;;;;;;;;;;4.80;100.00;;;;;;6293102;22;19993;-73
2023/12/26 16:50:36;;;;;;;;;;;4.80;100.00;;;;;;6269614;22;20450;-74
2023/12/26 16:53:10;;;;;;;;;;;4.80;100.00;;;;;;6296052;22;19918;-74
2023/12/26 16:55:38;;;;;;;;;;;4.80;100.00;;;;;;6295631;22;20005;-74
2023/12/26 16:58:05;;;;;;;;;;;4.90;100.00;;;;;;6269717;22;19943;-74
2023/12/26 17:00:33;;;;;;;;;;;4.90;100.00;;;;;;6268695;22;19929;-74
2023/12/26 17:03:05;;;;;;;;;;;4.90;100.00;;;;;;6295456;22;19949;-73
2023/12/26 17:05:33;;;;;;;;;;;5.00;100.00;;;;;;6267356;22;20710;-73
2023/12/26 17:08:00;;;;;;;;;;;5.00;100.00;;;;;;6288738;22;20522;-74